メインページ
METAR-TAF:

METAR-TAF

空港 :

フォール=ド=フランス, マルティニーク

マルティニーク・エメ・セゼール国際空港

緯度: 14-36N, 経度: 061-00W, 海抜: 5m

現時点の気象観測

当レポートは32分前の05:30(UTC)に作成
の風 6kt
気温 24°C
湿度 74%
気圧 1015 hPa
視程10km以上
高度3100ftの雲はほとんどない
高度6200ftの千切れ雲あり
高度18000ftの曇り

METAR: TFFF 250530Z AUTO 10006KT 9999 FEW031 BKN062 OVC180 24/19 Q1015 TEMPO 4000 SHRA SCT018TCU

時間: 02:02 (06:02 UTC)

予報

当レポートは2時間2分前の04:00(UTC)に作成
予報は25日の 06時(UTC)から 26日の 06時(UTC)まで有効
の風 10kt
視程10km以上
高度3000ftの雲は散在している
確率 30% :
25日の 06時(UTC)から 25日の 10時(UTC)まで一時的に
視程: 4000m
高度1800ftの雲は散在している, 塔状積雲.
にわか雨

TAF: TFFF 250400Z 2506/2606 08010KT 9999 SCT030 PROB30 TEMPO 2506/2510 4000 SHRA SCT018TCU

4,000以上の空港の気象観測と天気予報(METAR報とTAF報)

利用可能な観測所は地図上に黄色い丸と赤い丸で示す。

丸の上にカーソルを重ねると観測所名を参照できる。

次にクリックすると気象観測と天気予報を参照できる。

マップの切り替え:黒色「×」印の緑ボタンをクリックして拡大、「-」印の緑ボタンをクリックして縮小、緑色の三角印をクリックして隣りの地図に切り替え


METAR-TAF: